sensor_id;sensor_type;location;lat;lon;timestamp;P1;durP1;ratioP1;P2;durP2;ratioP2
8574;SDS011;4325;42.520;27.448;2022-12-08T00:01:23;40.43;;;25.80;;
8574;SDS011;4325;42.520;27.448;2022-12-08T00:03:51;41.63;;;26.30;;
8574;SDS011;4325;42.520;27.448;2022-12-08T00:06:21;41.67;;;27.37;;
8574;SDS011;4325;42.520;27.448;2022-12-08T00:09:12;46.37;;;27.00;;
8574;SDS011;4325;42.520;27.448;2022-12-08T00:11:50;43.20;;;27.70;;
8574;SDS011;4325;42.520;27.448;2022-12-08T00:14:18;58.77;;;35.63;;
8574;SDS011;4325;42.520;27.448;2022-12-08T00:16:49;57.80;;;35.87;;
8574;SDS011;4325;42.520;27.448;2022-12-08T00:19:15;56.07;;;34.50;;
8574;SDS011;4325;42.520;27.448;2022-12-08T00:21:42;47.77;;;30.90;;
8574;SDS011;4325;42.520;27.448;2022-12-08T00:24:09;55.37;;;33.77;;
8574;SDS011;4325;42.520;27.448;2022-12-08T00:26:36;50.63;;;30.77;;
8574;SDS011;4325;42.520;27.448;2022-12-08T00:29:03;51.53;;;30.37;;
8574;SDS011;4325;42.520;27.448;2022-12-08T00:31:30;47.27;;;31.30;;
8574;SDS011;4325;42.520;27.448;2022-12-08T00:33:59;47.17;;;30.10;;
8574;SDS011;4325;42.520;27.448;2022-12-08T00:36:26;51.47;;;31.13;;
8574;SDS011;4325;42.520;27.448;2022-12-08T00:38:53;46.90;;;29.23;;
8574;SDS011;4325;42.520;27.448;2022-12-08T00:41:20;49.90;;;30.10;;
8574;SDS011;4325;42.520;27.448;2022-12-08T00:44:10;46.53;;;29.03;;
8574;SDS011;4325;42.520;27.448;2022-12-08T00:46:39;40.43;;;29.87;;
8574;SDS011;4325;42.520;27.448;2022-12-08T00:49:08;46.03;;;28.63;;
8574;SDS011;4325;42.520;27.448;2022-12-08T00:51:34;43.40;;;29.13;;
8574;SDS011;4325;42.520;27.448;2022-12-08T00:54:01;39.23;;;26.77;;
8574;SDS011;4325;42.520;27.448;2022-12-08T00:56:29;46.10;;;28.20;;
8574;SDS011;4325;42.520;27.448;2022-12-08T00:58:56;39.40;;;25.57;;
8574;SDS011;4325;42.520;27.448;2022-12-08T01:01:23;41.73;;;27.20;;
8574;SDS011;4325;42.520;27.448;2022-12-08T01:03:50;39.80;;;28.23;;
8574;SDS011;4325;42.520;27.448;2022-12-08T01:06:18;40.50;;;26.83;;
8574;SDS011;4325;42.520;27.448;2022-12-08T01:08:45;36.23;;;25.53;;
8574;SDS011;4325;42.520;27.448;2022-12-08T01:11:12;33.93;;;23.43;;
8574;SDS011;4325;42.520;27.448;2022-12-08T01:13:41;36.07;;;24.23;;
8574;SDS011;4325;42.520;27.448;2022-12-08T01:16:08;36.47;;;25.63;;
8574;SDS011;4325;42.520;27.448;2022-12-08T01:18:35;36.67;;;23.87;;
8574;SDS011;4325;42.520;27.448;2022-12-08T01:21:02;34.73;;;23.63;;
8574;SDS011;4325;42.520;27.448;2022-12-08T01:23:31;35.37;;;23.07;;
8574;SDS011;4325;42.520;27.448;2022-12-08T01:26:02;39.33;;;23.83;;
8574;SDS011;4325;42.520;27.448;2022-12-08T01:28:30;38.43;;;22.37;;
8574;SDS011;4325;42.520;27.448;2022-12-08T01:30:57;35.30;;;23.07;;
8574;SDS011;4325;42.520;27.448;2022-12-08T01:33:26;31.73;;;22.50;;
8574;SDS011;4325;42.520;27.448;2022-12-08T01:35:53;32.57;;;21.10;;
8574;SDS011;4325;42.520;27.448;2022-12-08T01:38:21;29.03;;;21.57;;
8574;SDS011;4325;42.520;27.448;2022-12-08T01:40:49;31.00;;;22.03;;
8574;SDS011;4325;42.520;27.448;2022-12-08T01:43:17;33.77;;;22.13;;
8574;SDS011;4325;42.520;27.448;2022-12-08T01:45:45;31.90;;;21.80;;
8574;SDS011;4325;42.520;27.448;2022-12-08T01:48:13;32.17;;;22.13;;
8574;SDS011;4325;42.520;27.448;2022-12-08T01:50:44;35.97;;;22.97;;
8574;SDS011;4325;42.520;27.448;2022-12-08T01:53:13;31.60;;;22.20;;
8574;SDS011;4325;42.520;27.448;2022-12-08T01:55:44;34.57;;;22.40;;
8574;SDS011;4325;42.520;27.448;2022-12-08T01:58:17;31.27;;;21.83;;
8574;SDS011;4325;42.520;27.448;2022-12-08T02:00:48;34.97;;;23.63;;
8574;SDS011;4325;42.520;27.448;2022-12-08T02:03:18;34.13;;;22.40;;
8574;SDS011;4325;42.520;27.448;2022-12-08T02:05:51;32.73;;;23.73;;
8574;SDS011;4325;42.520;27.448;2022-12-08T02:08:18;38.43;;;24.53;;
8574;SDS011;4325;42.520;27.448;2022-12-08T02:10:46;38.67;;;24.77;;
8574;SDS011;4325;42.520;27.448;2022-12-08T02:13:15;40.20;;;23.87;;
8574;SDS011;4325;42.520;27.448;2022-12-08T02:15:47;39.27;;;25.87;;
8574;SDS011;4325;42.520;27.448;2022-12-08T02:18:31;35.53;;;24.17;;
8574;SDS011;4325;42.520;27.448;2022-12-08T02:21:08;32.23;;;22.20;;
8574;SDS011;4325;42.520;27.448;2022-12-08T02:23:42;30.57;;;20.93;;
8574;SDS011;4325;42.520;27.448;2022-12-08T02:26:25;26.97;;;19.77;;
8574;SDS011;4325;42.520;27.448;2022-12-08T02:32:27;28.57;;;19.63;;
8574;SDS011;4325;42.520;27.448;2022-12-08T02:35:08;35.30;;;21.67;;
8574;SDS011;4325;42.520;27.448;2022-12-08T02:37:39;32.17;;;20.60;;
8574;SDS011;4325;42.520;27.448;2022-12-08T02:40:14;30.53;;;21.60;;
8574;SDS011;4325;42.520;27.448;2022-12-08T02:42:47;31.00;;;20.27;;
8574;SDS011;4325;42.520;27.448;2022-12-08T02:45:21;34.20;;;21.10;;
8574;SDS011;4325;42.520;27.448;2022-12-08T02:47:52;32.03;;;21.30;;
8574;SDS011;4325;42.520;27.448;2022-12-08T02:50:20;32.03;;;20.93;;
8574;SDS011;4325;42.520;27.448;2022-12-08T02:52:47;37.30;;;21.37;;
8574;SDS011;4325;42.520;27.448;2022-12-08T02:55:19;28.67;;;21.27;;
8574;SDS011;4325;42.520;27.448;2022-12-08T02:57:55;34.37;;;20.70;;
8574;SDS011;4325;42.520;27.448;2022-12-08T03:00:32;33.13;;;20.70;;
8574;SDS011;4325;42.520;27.448;2022-12-08T03:03:12;32.60;;;21.00;;
8574;SDS011;4325;42.520;27.448;2022-12-08T03:05:53;38.00;;;23.93;;
8574;SDS011;4325;42.520;27.448;2022-12-08T03:08:29;30.77;;;22.20;;
8574;SDS011;4325;42.520;27.448;2022-12-08T03:11:01;36.97;;;22.37;;
8574;SDS011;4325;42.520;27.448;2022-12-08T03:13:37;36.73;;;23.97;;
8574;SDS011;4325;42.520;27.448;2022-12-08T03:16:08;35.53;;;23.50;;
8574;SDS011;4325;42.520;27.448;2022-12-08T03:18:38;36.70;;;23.70;;
8574;SDS011;4325;42.520;27.448;2022-12-08T03:21:09;46.97;;;24.13;;
8574;SDS011;4325;42.520;27.448;2022-12-08T03:23:39;39.10;;;24.47;;
8574;SDS011;4325;42.520;27.448;2022-12-08T03:26:09;38.93;;;24.33;;
8574;SDS011;4325;42.520;27.448;2022-12-08T03:28:41;34.73;;;24.10;;
8574;SDS011;4325;42.520;27.448;2022-12-08T03:31:08;42.37;;;24.90;;
8574;SDS011;4325;42.520;27.448;2022-12-08T03:33:40;39.07;;;22.93;;
8574;SDS011;4325;42.520;27.448;2022-12-08T03:36:11;37.40;;;24.00;;
8574;SDS011;4325;42.520;27.448;2022-12-08T03:38:40;40.43;;;24.57;;
8574;SDS011;4325;42.520;27.448;2022-12-08T03:41:08;39.70;;;24.57;;
8574;SDS011;4325;42.520;27.448;2022-12-08T03:43:44;42.60;;;25.47;;
8574;SDS011;4325;42.520;27.448;2022-12-08T03:46:12;39.83;;;25.63;;
8574;SDS011;4325;42.520;27.448;2022-12-08T03:48:39;41.53;;;26.67;;
8574;SDS011;4325;42.520;27.448;2022-12-08T03:51:06;39.50;;;26.83;;
8574;SDS011;4325;42.520;27.448;2022-12-08T03:53:35;45.47;;;27.83;;
8574;SDS011;4325;42.520;27.448;2022-12-08T03:56:02;47.03;;;27.60;;
8574;SDS011;4325;42.520;27.448;2022-12-08T03:58:30;49.90;;;28.07;;
8574;SDS011;4325;42.520;27.448;2022-12-08T04:00:57;46.07;;;27.20;;
8574;SDS011;4325;42.520;27.448;2022-12-08T04:03:23;42.97;;;25.80;;
8574;SDS011;4325;42.520;27.448;2022-12-08T04:05:50;43.97;;;27.03;;
8574;SDS011;4325;42.520;27.448;2022-12-08T04:08:18;42.63;;;26.33;;
8574;SDS011;4325;42.520;27.448;2022-12-08T04:10:46;41.53;;;27.77;;
8574;SDS011;4325;42.520;27.448;2022-12-08T04:13:13;45.77;;;28.27;;
8574;SDS011;4325;42.520;27.448;2022-12-08T04:15:43;48.03;;;27.43;;
8574;SDS011;4325;42.520;27.448;2022-12-08T04:18:10;44.97;;;28.53;;
8574;SDS011;4325;42.520;27.448;2022-12-08T04:20:37;45.50;;;27.50;;
8574;SDS011;4325;42.520;27.448;2022-12-08T04:23:04;47.73;;;26.33;;
8574;SDS011;4325;42.520;27.448;2022-12-08T04:25:31;43.90;;;27.07;;
8574;SDS011;4325;42.520;27.448;2022-12-08T04:27:59;42.63;;;27.50;;
8574;SDS011;4325;42.520;27.448;2022-12-08T04:30:26;45.07;;;26.63;;
8574;SDS011;4325;42.520;27.448;2022-12-08T04:32:53;44.47;;;27.50;;
8574;SDS011;4325;42.520;27.448;2022-12-08T04:35:20;55.00;;;31.47;;
8574;SDS011;4325;42.520;27.448;2022-12-08T04:37:47;49.13;;;29.17;;
8574;SDS011;4325;42.520;27.448;2022-12-08T04:40:14;46.20;;;27.37;;
8574;SDS011;4325;42.520;27.448;2022-12-08T04:42:41;46.70;;;27.83;;
8574;SDS011;4325;42.520;27.448;2022-12-08T04:45:09;46.63;;;26.53;;
8574;SDS011;4325;42.520;27.448;2022-12-08T04:47:36;47.43;;;29.67;;
8574;SDS011;4325;42.520;27.448;2022-12-08T04:50:04;45.20;;;28.63;;
8574;SDS011;4325;42.520;27.448;2022-12-08T04:52:32;45.13;;;25.93;;
8574;SDS011;4325;42.520;27.448;2022-12-08T04:54:59;45.27;;;27.33;;
8574;SDS011;4325;42.520;27.448;2022-12-08T04:57:26;43.40;;;26.73;;
8574;SDS011;4325;42.520;27.448;2022-12-08T04:59:53;45.97;;;26.47;;
8574;SDS011;4325;42.520;27.448;2022-12-08T05:02:22;40.50;;;25.20;;
8574;SDS011;4325;42.520;27.448;2022-12-08T05:04:49;39.83;;;25.63;;
8574;SDS011;4325;42.520;27.448;2022-12-08T05:07:15;39.70;;;28.10;;
8574;SDS011;4325;42.520;27.448;2022-12-08T05:09:42;53.60;;;30.50;;
8574;SDS011;4325;42.520;27.448;2022-12-08T05:12:09;42.00;;;27.37;;
8574;SDS011;4325;42.520;27.448;2022-12-08T05:14:36;45.87;;;25.20;;
8574;SDS011;4325;42.520;27.448;2022-12-08T05:17:03;48.83;;;31.10;;
8574;SDS011;4325;42.520;27.448;2022-12-08T05:19:31;42.13;;;28.47;;
8574;SDS011;4325;42.520;27.448;2022-12-08T05:21:58;43.50;;;28.30;;
8574;SDS011;4325;42.520;27.448;2022-12-08T05:24:25;43.47;;;27.23;;
8574;SDS011;4325;42.520;27.448;2022-12-08T05:26:52;36.23;;;24.63;;
8574;SDS011;4325;42.520;27.448;2022-12-08T05:29:19;39.10;;;25.10;;
8574;SDS011;4325;42.520;27.448;2022-12-08T05:31:45;35.73;;;23.50;;
8574;SDS011;4325;42.520;27.448;2022-12-08T05:34:12;37.10;;;23.23;;
8574;SDS011;4325;42.520;27.448;2022-12-08T05:36:40;36.10;;;24.60;;
8574;SDS011;4325;42.520;27.448;2022-12-08T05:39:07;38.23;;;23.53;;
8574;SDS011;4325;42.520;27.448;2022-12-08T05:41:37;36.53;;;24.33;;
8574;SDS011;4325;42.520;27.448;2022-12-08T05:44:04;36.77;;;23.10;;
8574;SDS011;4325;42.520;27.448;2022-12-08T05:46:31;38.37;;;24.57;;
8574;SDS011;4325;42.520;27.448;2022-12-08T05:48:58;36.77;;;24.63;;
8574;SDS011;4325;42.520;27.448;2022-12-08T05:51:26;40.03;;;25.13;;
8574;SDS011;4325;42.520;27.448;2022-12-08T05:53:54;42.27;;;28.37;;
8574;SDS011;4325;42.520;27.448;2022-12-08T05:56:22;49.73;;;32.83;;
8574;SDS011;4325;42.520;27.448;2022-12-08T05:58:48;40.60;;;25.07;;
8574;SDS011;4325;42.520;27.448;2022-12-08T06:01:19;32.17;;;22.63;;
8574;SDS011;4325;42.520;27.448;2022-12-08T06:03:47;35.30;;;22.60;;
8574;SDS011;4325;42.520;27.448;2022-12-08T06:06:14;40.30;;;23.90;;
8574;SDS011;4325;42.520;27.448;2022-12-08T06:08:41;40.23;;;25.57;;
8574;SDS011;4325;42.520;27.448;2022-12-08T06:11:09;48.57;;;30.13;;
8574;SDS011;4325;42.520;27.448;2022-12-08T06:13:42;39.07;;;26.07;;
8574;SDS011;4325;42.520;27.448;2022-12-08T06:16:09;41.27;;;27.33;;
8574;SDS011;4325;42.520;27.448;2022-12-08T06:18:35;40.10;;;26.10;;
8574;SDS011;4325;42.520;27.448;2022-12-08T06:21:03;36.83;;;26.13;;
8574;SDS011;4325;42.520;27.448;2022-12-08T06:23:31;38.27;;;25.30;;
8574;SDS011;4325;42.520;27.448;2022-12-08T06:25:59;38.90;;;26.43;;
8574;SDS011;4325;42.520;27.448;2022-12-08T06:28:29;37.07;;;23.90;;
8574;SDS011;4325;42.520;27.448;2022-12-08T06:30:56;27.33;;;20.27;;
8574;SDS011;4325;42.520;27.448;2022-12-08T06:33:23;28.53;;;20.50;;
8574;SDS011;4325;42.520;27.448;2022-12-08T06:35:50;36.73;;;23.00;;
8574;SDS011;4325;42.520;27.448;2022-12-08T06:38:17;33.83;;;23.40;;
8574;SDS011;4325;42.520;27.448;2022-12-08T06:40:50;37.87;;;27.23;;
8574;SDS011;4325;42.520;27.448;2022-12-08T06:43:18;38.57;;;26.30;;
8574;SDS011;4325;42.520;27.448;2022-12-08T06:45:47;34.83;;;23.90;;
8574;SDS011;4325;42.520;27.448;2022-12-08T06:48:14;40.70;;;22.93;;
8574;SDS011;4325;42.520;27.448;2022-12-08T06:50:41;28.93;;;22.07;;
8574;SDS011;4325;42.520;27.448;2022-12-08T06:53:09;35.60;;;25.47;;
8574;SDS011;4325;42.520;27.448;2022-12-08T06:55:37;47.80;;;33.53;;
8574;SDS011;4325;42.520;27.448;2022-12-08T06:58:07;52.63;;;38.23;;
8574;SDS011;4325;42.520;27.448;2022-12-08T07:00:34;59.70;;;37.90;;
8574;SDS011;4325;42.520;27.448;2022-12-08T07:03:02;58.33;;;40.50;;
8574;SDS011;4325;42.520;27.448;2022-12-08T07:05:29;54.30;;;39.17;;
8574;SDS011;4325;42.520;27.448;2022-12-08T07:07:56;59.97;;;37.50;;
8574;SDS011;4325;42.520;27.448;2022-12-08T07:10:23;55.87;;;33.77;;
8574;SDS011;4325;42.520;27.448;2022-12-08T07:12:50;45.17;;;29.87;;
8574;SDS011;4325;42.520;27.448;2022-12-08T07:15:17;38.70;;;26.73;;
8574;SDS011;4325;42.520;27.448;2022-12-08T07:17:44;44.53;;;27.43;;
8574;SDS011;4325;42.520;27.448;2022-12-08T07:20:13;46.27;;;29.10;;
8574;SDS011;4325;42.520;27.448;2022-12-08T07:22:41;48.97;;;31.37;;
8574;SDS011;4325;42.520;27.448;2022-12-08T07:25:13;52.83;;;34.00;;
8574;SDS011;4325;42.520;27.448;2022-12-08T07:27:40;50.03;;;34.10;;
8574;SDS011;4325;42.520;27.448;2022-12-08T07:30:07;42.73;;;31.20;;
8574;SDS011;4325;42.520;27.448;2022-12-08T07:32:35;50.77;;;33.67;;
8574;SDS011;4325;42.520;27.448;2022-12-08T07:35:02;51.93;;;34.63;;
8574;SDS011;4325;42.520;27.448;2022-12-08T07:37:31;59.53;;;35.17;;
8574;SDS011;4325;42.520;27.448;2022-12-08T07:39:58;51.47;;;33.57;;
8574;SDS011;4325;42.520;27.448;2022-12-08T07:42:25;43.03;;;30.00;;
8574;SDS011;4325;42.520;27.448;2022-12-08T07:44:52;39.87;;;29.63;;
8574;SDS011;4325;42.520;27.448;2022-12-08T07:47:37;40.77;;;29.67;;
8574;SDS011;4325;42.520;27.448;2022-12-08T07:50:04;38.30;;;27.93;;
8574;SDS011;4325;42.520;27.448;2022-12-08T07:52:34;48.23;;;26.13;;
8574;SDS011;4325;42.520;27.448;2022-12-08T07:55:00;44.27;;;27.60;;
8574;SDS011;4325;42.520;27.448;2022-12-08T07:57:27;43.67;;;27.23;;
8574;SDS011;4325;42.520;27.448;2022-12-08T07:59:54;44.37;;;29.10;;
8574;SDS011;4325;42.520;27.448;2022-12-08T08:02:21;44.73;;;29.83;;
8574;SDS011;4325;42.520;27.448;2022-12-08T08:04:48;44.80;;;31.67;;
8574;SDS011;4325;42.520;27.448;2022-12-08T08:07:15;46.47;;;30.97;;
8574;SDS011;4325;42.520;27.448;2022-12-08T08:09:43;53.80;;;32.63;;
8574;SDS011;4325;42.520;27.448;2022-12-08T08:12:10;50.07;;;34.47;;
8574;SDS011;4325;42.520;27.448;2022-12-08T08:14:37;48.77;;;34.33;;
8574;SDS011;4325;42.520;27.448;2022-12-08T08:17:04;55.10;;;34.37;;
8574;SDS011;4325;42.520;27.448;2022-12-08T08:19:31;49.87;;;33.87;;
8574;SDS011;4325;42.520;27.448;2022-12-08T08:21:57;46.00;;;30.97;;
8574;SDS011;4325;42.520;27.448;2022-12-08T08:24:24;53.60;;;31.00;;
8574;SDS011;4325;42.520;27.448;2022-12-08T08:26:52;54.20;;;29.40;;
8574;SDS011;4325;42.520;27.448;2022-12-08T08:29:19;50.30;;;30.07;;
8574;SDS011;4325;42.520;27.448;2022-12-08T08:31:47;58.07;;;31.73;;
8574;SDS011;4325;42.520;27.448;2022-12-08T08:34:14;60.57;;;33.33;;
8574;SDS011;4325;42.520;27.448;2022-12-08T08:36:41;62.37;;;39.87;;
8574;SDS011;4325;42.520;27.448;2022-12-08T08:39:07;56.87;;;38.00;;
8574;SDS011;4325;42.520;27.448;2022-12-08T08:41:34;53.63;;;38.73;;
8574;SDS011;4325;42.520;27.448;2022-12-08T08:44:03;60.93;;;40.83;;
8574;SDS011;4325;42.520;27.448;2022-12-08T08:46:30;57.63;;;41.13;;
8574;SDS011;4325;42.520;27.448;2022-12-08T08:48:57;61.30;;;41.60;;
8574;SDS011;4325;42.520;27.448;2022-12-08T08:51:24;72.10;;;44.27;;
8574;SDS011;4325;42.520;27.448;2022-12-08T08:53:51;58.20;;;41.67;;
8574;SDS011;4325;42.520;27.448;2022-12-08T08:56:17;61.83;;;40.53;;
8574;SDS011;4325;42.520;27.448;2022-12-08T08:58:46;53.27;;;38.07;;
8574;SDS011;4325;42.520;27.448;2022-12-08T09:01:15;54.77;;;37.97;;
8574;SDS011;4325;42.520;27.448;2022-12-08T09:03:42;43.80;;;28.57;;
8574;SDS011;4325;42.520;27.448;2022-12-08T09:06:09;47.03;;;30.40;;
8574;SDS011;4325;42.520;27.448;2022-12-08T09:08:36;43.77;;;30.87;;
8574;SDS011;4325;42.520;27.448;2022-12-08T09:11:03;47.33;;;29.30;;
8574;SDS011;4325;42.520;27.448;2022-12-08T09:13:30;42.00;;;29.27;;
8574;SDS011;4325;42.520;27.448;2022-12-08T09:15:59;46.03;;;29.03;;
8574;SDS011;4325;42.520;27.448;2022-12-08T09:18:28;36.97;;;27.53;;
8574;SDS011;4325;42.520;27.448;2022-12-08T09:20:55;38.53;;;26.57;;
8574;SDS011;4325;42.520;27.448;2022-12-08T09:23:22;53.23;;;25.63;;
8574;SDS011;4325;42.520;27.448;2022-12-08T09:25:48;47.87;;;25.70;;
8574;SDS011;4325;42.520;27.448;2022-12-08T09:28:15;52.80;;;32.70;;
8574;SDS011;4325;42.520;27.448;2022-12-08T09:30:42;59.53;;;37.73;;
8574;SDS011;4325;42.520;27.448;2022-12-08T09:33:09;57.23;;;36.30;;
8574;SDS011;4325;42.520;27.448;2022-12-08T09:35:37;47.67;;;34.27;;
8574;SDS011;4325;42.520;27.448;2022-12-08T09:38:04;48.70;;;30.70;;
8574;SDS011;4325;42.520;27.448;2022-12-08T09:40:31;51.03;;;32.23;;
8574;SDS011;4325;42.520;27.448;2022-12-08T09:43:06;43.27;;;32.23;;
8574;SDS011;4325;42.520;27.448;2022-12-08T09:45:44;39.80;;;26.50;;
8574;SDS011;4325;42.520;27.448;2022-12-08T09:48:13;42.47;;;24.00;;
8574;SDS011;4325;42.520;27.448;2022-12-08T09:50:45;35.20;;;22.33;;
8574;SDS011;4325;42.520;27.448;2022-12-08T09:53:17;35.23;;;23.77;;
8574;SDS011;4325;42.520;27.448;2022-12-08T09:55:48;34.60;;;26.23;;
8574;SDS011;4325;42.520;27.448;2022-12-08T09:58:19;34.10;;;25.67;;
8574;SDS011;4325;42.520;27.448;2022-12-08T10:00:51;35.87;;;25.70;;
8574;SDS011;4325;42.520;27.448;2022-12-08T10:03:18;47.87;;;26.83;;
8574;SDS011;4325;42.520;27.448;2022-12-08T10:05:51;39.13;;;24.83;;
8574;SDS011;4325;42.520;27.448;2022-12-08T10:08:24;29.93;;;23.73;;
8574;SDS011;4325;42.520;27.448;2022-12-08T10:10:56;24.30;;;21.00;;
8574;SDS011;4325;42.520;27.448;2022-12-08T10:13:28;26.83;;;22.83;;
8574;SDS011;4325;42.520;27.448;2022-12-08T10:16:05;27.83;;;23.07;;
8574;SDS011;4325;42.520;27.448;2022-12-08T10:18:38;28.03;;;24.13;;
8574;SDS011;4325;42.520;27.448;2022-12-08T10:21:12;29.43;;;24.97;;
8574;SDS011;4325;42.520;27.448;2022-12-08T10:23:42;31.07;;;23.43;;
8574;SDS011;4325;42.520;27.448;2022-12-08T10:26:13;27.63;;;21.40;;
8574;SDS011;4325;42.520;27.448;2022-12-08T10:28:41;31.70;;;20.43;;
8574;SDS011;4325;42.520;27.448;2022-12-08T10:31:13;28.40;;;19.50;;
8574;SDS011;4325;42.520;27.448;2022-12-08T10:33:41;26.87;;;19.17;;
8574;SDS011;4325;42.520;27.448;2022-12-08T10:36:11;25.47;;;19.60;;
8574;SDS011;4325;42.520;27.448;2022-12-08T10:38:38;27.30;;;19.23;;
8574;SDS011;4325;42.520;27.448;2022-12-08T10:41:08;24.03;;;21.47;;
8574;SDS011;4325;42.520;27.448;2022-12-08T10:43:40;27.13;;;21.40;;
8574;SDS011;4325;42.520;27.448;2022-12-08T10:46:10;23.23;;;20.33;;
8574;SDS011;4325;42.520;27.448;2022-12-08T10:48:46;22.90;;;20.47;;
8574;SDS011;4325;42.520;27.448;2022-12-08T10:51:25;28.60;;;23.23;;
8574;SDS011;4325;42.520;27.448;2022-12-08T10:53:54;31.00;;;24.77;;
8574;SDS011;4325;42.520;27.448;2022-12-08T10:56:23;23.30;;;20.23;;
8574;SDS011;4325;42.520;27.448;2022-12-08T10:59:04;26.63;;;19.73;;
8574;SDS011;4325;42.520;27.448;2022-12-08T11:01:38;28.30;;;20.77;;
8574;SDS011;4325;42.520;27.448;2022-12-08T11:04:10;23.53;;;19.60;;
8574;SDS011;4325;42.520;27.448;2022-12-08T11:06:42;25.87;;;20.30;;
8574;SDS011;4325;42.520;27.448;2022-12-08T11:09:21;32.87;;;21.40;;
8574;SDS011;4325;42.520;27.448;2022-12-08T11:11:51;28.83;;;22.53;;
8574;SDS011;4325;42.520;27.448;2022-12-08T11:14:21;32.30;;;21.07;;
8574;SDS011;4325;42.520;27.448;2022-12-08T11:16:49;31.77;;;21.20;;
8574;SDS011;4325;42.520;27.448;2022-12-08T11:19:18;23.27;;;19.83;;
8574;SDS011;4325;42.520;27.448;2022-12-08T11:21:47;28.77;;;21.50;;
8574;SDS011;4325;42.520;27.448;2022-12-08T11:24:21;32.40;;;21.43;;
8574;SDS011;4325;42.520;27.448;2022-12-08T11:26:52;22.67;;;19.00;;
8574;SDS011;4325;42.520;27.448;2022-12-08T11:29:22;28.47;;;15.80;;
8574;SDS011;4325;42.520;27.448;2022-12-08T11:31:50;21.90;;;15.30;;
8574;SDS011;4325;42.520;27.448;2022-12-08T11:34:21;21.83;;;15.77;;
8574;SDS011;4325;42.520;27.448;2022-12-08T11:36:57;20.87;;;14.63;;
8574;SDS011;4325;42.520;27.448;2022-12-08T11:39:24;19.90;;;15.07;;
8574;SDS011;4325;42.520;27.448;2022-12-08T11:41:53;18.53;;;14.27;;
8574;SDS011;4325;42.520;27.448;2022-12-08T11:44:26;17.67;;;14.40;;
8574;SDS011;4325;42.520;27.448;2022-12-08T11:46:59;19.47;;;13.97;;
8574;SDS011;4325;42.520;27.448;2022-12-08T11:49:32;22.83;;;15.70;;
8574;SDS011;4325;42.520;27.448;2022-12-08T11:52:04;24.05;;;14.93;;
8574;SDS011;4325;42.520;27.448;2022-12-08T11:54:39;17.60;;;15.70;;
8574;SDS011;4325;42.520;27.448;2022-12-08T11:57:12;22.45;;;16.70;;
8574;SDS011;4325;42.520;27.448;2022-12-08T11:59:44;22.52;;;16.80;;
8574;SDS011;4325;42.520;27.448;2022-12-08T12:02:16;17.42;;;15.35;;
8574;SDS011;4325;42.520;27.448;2022-12-08T12:04:46;22.40;;;16.58;;
8574;SDS011;4325;42.520;27.448;2022-12-08T12:13:24;21.90;;;16.70;;
8574;SDS011;4325;42.520;27.448;2022-12-08T12:19:03;29.07;;;16.33;;
8574;SDS011;4325;42.520;27.448;2022-12-08T12:21:36;18.83;;;16.30;;
8574;SDS011;4325;42.520;27.448;2022-12-08T12:24:07;25.43;;;16.50;;
8574;SDS011;4325;42.520;27.448;2022-12-08T12:26:48;25.90;;;16.23;;
8574;SDS011;4325;42.520;27.448;2022-12-08T12:29:20;21.83;;;14.37;;
8574;SDS011;4325;42.520;27.448;2022-12-08T12:31:50;20.20;;;14.73;;
8574;SDS011;4325;42.520;27.448;2022-12-08T12:34:21;22.97;;;15.60;;
8574;SDS011;4325;42.520;27.448;2022-12-08T12:36:52;22.17;;;16.70;;
8574;SDS011;4325;42.520;27.448;2022-12-08T12:39:23;27.57;;;18.40;;
8574;SDS011;4325;42.520;27.448;2022-12-08T12:41:54;32.03;;;19.20;;
8574;SDS011;4325;42.520;27.448;2022-12-08T12:44:39;39.27;;;19.67;;
8574;SDS011;4325;42.520;27.448;2022-12-08T12:47:11;26.60;;;18.90;;
8574;SDS011;4325;42.520;27.448;2022-12-08T12:52:36;34.30;;;22.13;;
8574;SDS011;4325;42.520;27.448;2022-12-08T12:55:24;31.53;;;21.53;;
8574;SDS011;4325;42.520;27.448;2022-12-08T12:58:35;28.13;;;18.70;;
8574;SDS011;4325;42.520;27.448;2022-12-08T13:04:04;30.80;;;19.60;;
8574;SDS011;4325;42.520;27.448;2022-12-08T13:06:34;30.80;;;21.07;;
8574;SDS011;4325;42.520;27.448;2022-12-08T13:09:04;34.47;;;24.43;;
8574;SDS011;4325;42.520;27.448;2022-12-08T13:11:44;35.20;;;23.83;;
8574;SDS011;4325;42.520;27.448;2022-12-08T13:14:28;28.97;;;23.73;;
8574;SDS011;4325;42.520;27.448;2022-12-08T13:17:00;37.93;;;23.13;;
8574;SDS011;4325;42.520;27.448;2022-12-08T13:19:32;34.77;;;25.20;;
8574;SDS011;4325;42.520;27.448;2022-12-08T13:22:02;33.50;;;26.20;;
8574;SDS011;4325;42.520;27.448;2022-12-08T13:24:49;32.30;;;24.93;;
8574;SDS011;4325;42.520;27.448;2022-12-08T13:33:09;30.40;;;23.20;;
8574;SDS011;4325;42.520;27.448;2022-12-08T13:35:43;35.80;;;22.97;;
8574;SDS011;4325;42.520;27.448;2022-12-08T13:38:14;34.77;;;22.97;;
8574;SDS011;4325;42.520;27.448;2022-12-08T13:40:44;37.90;;;22.30;;
8574;SDS011;4325;42.520;27.448;2022-12-08T13:43:16;30.37;;;20.97;;
8574;SDS011;4325;42.520;27.448;2022-12-08T13:45:50;32.87;;;21.07;;
8574;SDS011;4325;42.520;27.448;2022-12-08T13:48:19;33.13;;;22.03;;
8574;SDS011;4325;42.520;27.448;2022-12-08T13:50:52;31.57;;;22.27;;
8574;SDS011;4325;42.520;27.448;2022-12-08T13:53:23;30.77;;;22.03;;
8574;SDS011;4325;42.520;27.448;2022-12-08T13:55:54;39.30;;;23.17;;
8574;SDS011;4325;42.520;27.448;2022-12-08T13:58:26;30.73;;;21.73;;
8574;SDS011;4325;42.520;27.448;2022-12-08T14:00:59;30.90;;;22.23;;
8574;SDS011;4325;42.520;27.448;2022-12-08T14:03:32;33.20;;;21.43;;
8574;SDS011;4325;42.520;27.448;2022-12-08T14:06:04;32.47;;;20.57;;
8574;SDS011;4325;42.520;27.448;2022-12-08T14:08:32;29.07;;;20.80;;
8574;SDS011;4325;42.520;27.448;2022-12-08T14:11:00;29.23;;;21.43;;
8574;SDS011;4325;42.520;27.448;2022-12-08T14:13:30;30.70;;;20.37;;
8574;SDS011;4325;42.520;27.448;2022-12-08T14:15:58;33.37;;;22.53;;
8574;SDS011;4325;42.520;27.448;2022-12-08T14:18:27;29.27;;;21.20;;
8574;SDS011;4325;42.520;27.448;2022-12-08T14:20:59;30.73;;;21.27;;
8574;SDS011;4325;42.520;27.448;2022-12-08T14:23:27;39.07;;;21.43;;
8574;SDS011;4325;42.520;27.448;2022-12-08T14:25:54;35.57;;;22.30;;
8574;SDS011;4325;42.520;27.448;2022-12-08T14:28:23;33.13;;;20.87;;
8574;SDS011;4325;42.520;27.448;2022-12-08T14:30:51;29.73;;;20.60;;
8574;SDS011;4325;42.520;27.448;2022-12-08T14:33:20;30.63;;;20.43;;
8574;SDS011;4325;42.520;27.448;2022-12-08T14:35:48;31.77;;;20.03;;
8574;SDS011;4325;42.520;27.448;2022-12-08T14:38:17;27.73;;;19.83;;
8574;SDS011;4325;42.520;27.448;2022-12-08T14:40:45;29.70;;;21.87;;
8574;SDS011;4325;42.520;27.448;2022-12-08T14:43:14;30.53;;;20.73;;
8574;SDS011;4325;42.520;27.448;2022-12-08T14:45:46;32.17;;;21.43;;
8574;SDS011;4325;42.520;27.448;2022-12-08T14:48:19;33.03;;;23.23;;
8574;SDS011;4325;42.520;27.448;2022-12-08T14:50:53;32.47;;;22.43;;
8574;SDS011;4325;42.520;27.448;2022-12-08T14:53:28;41.83;;;22.57;;
8574;SDS011;4325;42.520;27.448;2022-12-08T14:56:04;38.27;;;22.97;;
8574;SDS011;4325;42.520;27.448;2022-12-08T14:58:33;31.33;;;21.80;;
8574;SDS011;4325;42.520;27.448;2022-12-08T15:01:00;31.83;;;22.07;;
8574;SDS011;4325;42.520;27.448;2022-12-08T15:03:30;37.50;;;20.87;;
8574;SDS011;4325;42.520;27.448;2022-12-08T15:05:58;37.73;;;21.73;;
8574;SDS011;4325;42.520;27.448;2022-12-08T15:08:31;34.27;;;22.23;;
8574;SDS011;4325;42.520;27.448;2022-12-08T15:11:12;34.23;;;23.17;;
8574;SDS011;4325;42.520;27.448;2022-12-08T15:13:57;50.60;;;24.17;;